Time;durP1;ratioP1;P1;durP2;ratioP2;P2;SDS_P1;SDS_P2;PMS_P1;PMS_P2;Temp;Humidity;BMP_temperature;BMP_pressure;BME280_temperature;BME280_humidity;BME280_pressure;Samples;Min_cycle;Max_cycle;Signal;HPM_P1;HPM_P2
2021/03/15 00:02:14;;;;;;;3.30;3.00;;;;;;;2.74;96.73;96512.25;5047452;28;20181;-65
2021/03/15 00:04:39;;;;;;;3.57;3.07;;;;;;;2.71;96.41;96501.47;5034530;28;20172;-64
2021/03/15 00:07:05;;;;;;;5.97;3.27;;;;;;;2.74;96.26;96506.25;5025544;28;20531;-65
2021/03/15 00:09:30;;;;;;;3.20;2.90;;;;;;;2.69;96.07;96503.44;5050544;28;20210;-67
2021/03/15 00:11:56;;;;;;;4.47;3.03;;;;;;;2.69;95.84;96501.66;5050712;28;20170;-65
2021/03/15 00:14:22;;;;;;;3.37;3.00;;;;;;;2.76;95.95;96501.72;5034611;28;20172;-65
2021/03/15 00:16:48;;;;;;;4.33;2.93;;;;;;;2.75;95.37;96506.09;5038085;28;20261;-65
2021/03/15 00:19:14;;;;;;;7.50;3.23;;;;;;;2.69;95.27;96499.06;5020473;28;20211;-65
2021/03/15 00:21:42;;;;;;;5.13;3.00;;;;;;;2.72;95.38;96497.91;5038882;28;20229;-64
2021/03/15 00:24:08;;;;;;;3.40;2.97;;;;;;;2.69;95.46;96501.66;5027323;28;20196;-65
2021/03/15 00:26:34;;;;;;;3.23;2.70;;;;;;;2.68;95.52;96494.84;5031695;28;20183;-65
2021/03/15 00:28:59;;;;;;;3.93;2.90;;;;;;;2.65;95.56;96486.69;5017826;28;20201;-65
2021/03/15 00:31:25;;;;;;;3.30;3.00;;;;;;;2.58;95.12;96485.81;5014087;28;20263;-67
2021/03/15 00:33:51;;;;;;;2.93;2.73;;;;;;;2.61;95.47;96488.84;5024364;28;20170;-65
2021/03/15 00:36:16;;;;;;;3.40;3.00;;;;;;;2.55;95.32;96486.19;5036174;28;20195;-65
2021/03/15 00:38:42;;;;;;;3.20;3.00;;;;;;;2.48;96.05;96486.09;5035437;28;20711;-64
2021/03/15 00:41:07;;;;;;;3.17;2.87;;;;;;;2.51;96.80;96483.13;5050162;28;20261;-65
2021/03/15 00:43:33;;;;;;;3.37;3.07;;;;;;;2.56;96.25;96474.84;5019043;28;20180;-66
2021/03/15 00:45:58;;;;;;;5.00;3.40;;;;;;;2.51;96.58;96481.34;5042260;28;20176;-66
2021/03/15 00:48:24;;;;;;;3.97;3.03;;;;;;;2.51;96.07;96475.38;5021918;28;20637;-65
2021/03/15 00:50:50;;;;;;;4.10;3.00;;;;;;;2.43;97.28;96475.50;5027056;28;20197;-65
2021/03/15 00:53:15;;;;;;;5.07;3.70;;;;;;;2.39;97.24;96480.25;5024716;28;20206;-65
2021/03/15 00:55:41;;;;;;;3.70;2.90;;;;;;;2.39;96.25;96466.53;5041325;28;20237;-65
2021/03/15 00:58:06;;;;;;;3.47;3.17;;;;;;;2.39;96.71;96482.03;5020811;28;20257;-65
2021/03/15 01:00:35;;;;;;;3.70;3.40;;;;;;;2.39;97.19;96471.69;5018820;28;20209;-65
2021/03/15 01:03:01;;;;;;;3.40;3.10;;;;;;;2.43;96.37;96480.69;5028423;28;20932;-65
2021/03/15 01:05:54;;;;;;;4.30;3.43;;;;;;;2.34;97.32;96479.97;5049153;28;20167;-65
2021/03/15 01:08:19;;;;;;;4.03;3.50;;;;;;;2.37;96.08;96466.69;5026570;28;20186;-65
2021/03/15 01:10:47;;;;;;;3.60;3.30;;;;;;;2.37;97.04;96469.28;5022242;28;20284;-65
2021/03/15 01:13:13;;;;;;;3.40;3.10;;;;;;;2.29;96.82;96469.38;5040248;28;20181;-65
2021/03/15 01:15:40;;;;;;;5.20;3.27;;;;;;;2.27;97.20;96470.56;5018465;28;20199;-65
2021/03/15 01:18:06;;;;;;;4.97;3.80;;;;;;;2.23;97.18;96467.53;5041065;28;20174;-65
2021/03/15 01:20:32;;;;;;;4.97;3.40;;;;;;;2.08;98.18;96467.56;5013572;28;20203;-65
2021/03/15 01:22:58;;;;;;;5.43;3.50;;;;;;;2.12;97.84;96460.25;5012583;28;20164;-66
2021/03/15 01:25:36;;;;;;;5.00;3.70;;;;;;;2.08;97.82;96465.00;5040617;28;20201;-66
2021/03/15 01:28:04;;;;;;;4.40;3.70;;;;;;;2.03;98.24;96467.31;5013097;28;20177;-67
2021/03/15 01:30:32;;;;;;;3.50;3.20;;;;;;;1.92;97.95;96467.78;5028373;28;20259;-66
2021/03/15 01:32:58;;;;;;;3.93;3.53;;;;;;;1.91;98.63;96465.38;5033146;28;20174;-66
2021/03/15 01:35:24;;;;;;;6.53;3.63;;;;;;;1.96;98.33;96463.84;5025624;28;20688;-66
2021/03/15 01:37:50;;;;;;;6.67;3.83;;;;;;;1.93;97.84;96464.22;5039795;28;20182;-66
2021/03/15 01:40:17;;;;;;;4.13;3.73;;;;;;;1.86;99.06;96457.34;5050352;28;20204;-67
2021/03/15 01:42:45;;;;;;;5.43;3.63;;;;;;;1.83;98.80;96452.56;5051612;28;20174;-68
2021/03/15 01:45:11;;;;;;;5.47;3.43;;;;;;;1.83;98.92;96458.53;5049924;28;20182;-66
2021/03/15 01:47:39;;;;;;;6.63;3.43;;;;;;;1.86;98.62;96453.00;5028251;28;20179;-65
2021/03/15 01:50:06;;;;;;;4.83;3.60;;;;;;;1.78;98.70;96442.78;5035449;28;21045;-65
2021/03/15 01:52:34;;;;;;;5.23;3.47;;;;;;;1.82;98.73;96441.41;5019688;28;20186;-65
2021/03/15 01:55:00;;;;;;;5.03;3.87;;;;;;;1.75;98.81;96435.38;5030177;28;20623;-67
2021/03/15 01:57:26;;;;;;;6.77;3.70;;;;;;;1.76;99.44;96439.56;5013380;28;20442;-66
2021/03/15 01:59:51;;;;;;;5.07;3.63;;;;;;;1.69;99.27;96436.09;5026705;28;20281;-67
2021/03/15 02:02:18;;;;;;;5.00;3.30;;;;;;;1.66;99.94;96436.47;5012313;28;20163;-67
2021/03/15 02:04:45;;;;;;;4.87;3.53;;;;;;;1.58;99.79;96437.34;5013554;28;20222;-68
2021/03/15 02:07:11;;;;;;;3.97;3.67;;;;;;;1.65;99.20;96429.69;5044258;28;20170;-66
2021/03/15 02:09:36;;;;;;;7.37;3.43;;;;;;;1.60;100.00;96425.06;5017148;28;20257;-65
2021/03/15 02:12:11;;;;;;;5.73;3.63;;;;;;;1.58;99.83;96428.78;5038274;28;20206;-65
2021/03/15 02:14:42;;;;;;;7.17;3.97;;;;;;;1.61;99.80;96418.91;5033028;28;20169;-65
2021/03/15 02:17:23;;;;;;;7.00;3.47;;;;;;;1.53;99.96;96410.44;5020353;28;20175;-65
2021/03/15 02:20:16;;;;;;;4.30;3.07;;;;;;;1.46;100.00;96400.03;5013619;28;20201;-65
2021/03/15 02:22:44;;;;;;;5.43;3.47;;;;;;;1.50;100.00;96387.59;5012318;28;20171;-65
2021/03/15 02:25:47;;;;;;;3.97;3.57;;;;;;;1.44;100.00;96389.09;5021518;28;20171;-65
2021/03/15 02:28:36;;;;;;;6.33;3.47;;;;;;;1.50;100.00;96387.59;5011256;28;20202;-65
2021/03/15 02:31:31;;;;;;;6.10;4.00;;;;;;;1.45;100.00;96375.19;5023935;28;20206;-65
2021/03/15 02:34:14;;;;;;;4.93;3.77;;;;;;;1.47;100.00;96372.44;5009560;28;20198;-65
2021/03/15 02:36:42;;;;;;;4.27;3.20;;;;;;;1.46;100.00;96368.25;5021088;28;20252;-65
2021/03/15 02:39:15;;;;;;;4.03;3.47;;;;;;;1.52;100.00;96364.94;5020928;28;20201;-65
2021/03/15 02:41:41;;;;;;;3.90;3.40;;;;;;;1.54;100.00;96366.38;5031356;28;20183;-65
2021/03/15 02:44:09;;;;;;;3.77;3.47;;;;;;;1.67;100.00;96363.16;5036829;28;20235;-65
2021/03/15 02:46:37;;;;;;;4.73;3.73;;;;;;;1.64;100.00;96360.91;5017199;28;20179;-65
2021/03/15 02:49:07;;;;;;;6.00;4.07;;;;;;;1.65;100.00;96347.84;5042346;28;20704;-65
2021/03/15 02:51:35;;;;;;;4.40;4.00;;;;;;;1.75;100.00;96344.16;5027213;28;20186;-65
2021/03/15 02:54:03;;;;;;;6.10;4.03;;;;;;;1.65;100.00;96337.50;5027006;28;20321;-65
2021/03/15 02:56:33;;;;;;;6.73;3.60;;;;;;;1.74;100.00;96343.34;5040441;28;20302;-65
2021/03/15 02:59:03;;;;;;;4.67;3.50;;;;;;;1.79;100.00;96337.63;5024775;28;20559;-65
2021/03/15 03:01:30;;;;;;;4.20;3.53;;;;;;;1.83;100.00;96346.63;5014148;28;20266;-65
2021/03/15 03:03:57;;;;;;;5.90;3.53;;;;;;;1.89;99.76;96338.16;5023201;28;20170;-65
2021/03/15 03:06:28;;;;;;;4.57;3.43;;;;;;;1.89;99.81;96328.63;5030747;28;20207;-65
2021/03/15 03:08:57;;;;;;;6.60;3.40;;;;;;;1.96;98.62;96328.66;5046274;28;20588;-67
2021/03/15 03:11:24;;;;;;;7.07;3.90;;;;;;;1.97;99.29;96330.28;5023952;28;20176;-66
2021/03/15 03:13:52;;;;;;;5.13;3.47;;;;;;;1.93;99.03;96329.84;5044505;28;20261;-66
2021/03/15 03:16:19;;;;;;;4.13;3.40;;;;;;;1.89;99.59;96327.81;5011956;28;20666;-66
2021/03/15 03:18:49;;;;;;;6.57;3.80;;;;;;;2.01;99.46;96326.31;5013298;28;20175;-68
2021/03/15 03:21:16;;;;;;;5.87;3.73;;;;;;;1.92;99.42;96330.81;5038130;28;20170;-67
2021/03/15 03:23:43;;;;;;;7.37;3.60;;;;;;;1.91;99.77;96325.84;5022882;28;20180;-67
2021/03/15 03:26:09;;;;;;;9.23;3.67;;;;;;;1.94;99.02;96320.31;5021143;28;20209;-67
2021/03/15 03:28:36;;;;;;;4.30;3.37;;;;;;;1.90;98.99;96306.94;5054747;28;20185;-66
2021/03/15 03:31:05;;;;;;;4.87;3.47;;;;;;;1.85;99.20;96311.88;5041443;28;20271;-66
2021/03/15 03:33:31;;;;;;;3.80;2.80;;;;;;;1.90;99.48;96306.94;5027032;28;20647;-66
2021/03/15 03:35:56;;;;;;;4.33;2.83;;;;;;;1.78;99.80;96300.69;5046905;28;20286;-67
2021/03/15 03:38:22;;;;;;;5.33;3.30;;;;;;;1.83;98.99;96292.38;5026884;28;20256;-67
2021/03/15 03:40:48;;;;;;;6.67;2.90;;;;;;;1.79;99.02;96296.28;5054706;28;20206;-67
2021/03/15 03:43:13;;;;;;;4.43;3.03;;;;;;;1.82;98.97;96285.59;5029862;28;20180;-66
2021/03/15 03:45:39;;;;;;;6.90;2.80;;;;;;;1.98;98.89;96290.53;5048242;28;20182;-65
2021/03/15 03:48:05;;;;;;;4.27;2.70;;;;;;;2.02;98.11;96287.38;5047380;28;20919;-66
2021/03/15 03:50:33;;;;;;;3.57;2.80;;;;;;;2.02;98.74;96286.59;5017919;28;20664;-66
2021/03/15 03:53:36;;;;;;;4.43;2.87;;;;;;;1.95;98.77;96290.91;5015999;28;20585;-66
2021/03/15 03:59:31;;;;;;;2.60;2.40;;;;;;;1.98;99.34;96290.53;5012584;28;20317;-65
2021/03/15 04:02:01;;;;;;;5.47;2.80;;;;;;;2.08;98.28;96291.81;5013997;28;20271;-65
2021/03/15 04:04:30;;;;;;;3.10;2.90;;;;;;;2.10;98.63;96294.22;5013695;28;20187;-65
2021/03/15 04:06:56;;;;;;;3.17;2.57;;;;;;;2.01;98.76;96292.72;5012996;28;20179;-67
2021/03/15 04:09:41;;;;;;;3.63;2.30;;;;;;;2.18;98.88;96294.06;5013811;28;20207;-65
2021/03/15 04:12:12;;;;;;;4.97;2.63;;;;;;;2.18;98.48;96291.50;5013619;28;20230;-65
2021/03/15 04:14:44;;;;;;;3.20;2.70;;;;;;;2.22;98.59;96290.16;5013923;28;20555;-66
2021/03/15 04:17:15;;;;;;;3.60;2.40;;;;;;;2.15;98.95;96286.72;5012662;28;20644;-65
2021/03/15 04:20:04;;;;;;;3.00;2.00;;;;;;;2.28;99.03;96286.03;5013599;28;20210;-65
2021/03/15 04:22:33;;;;;;;5.17;2.53;;;;;;;2.34;98.12;96293.03;5012974;28;20183;-65
2021/03/15 04:25:01;;;;;;;4.13;2.60;;;;;;;2.37;98.10;96284.91;4995755;28;20178;-67
2021/03/15 04:27:28;;;;;;;5.80;2.97;;;;;;;2.34;99.23;96293.81;5013748;28;20194;-65
2021/03/15 04:29:55;;;;;;;2.60;2.40;;;;;;;2.31;98.93;96277.88;5012953;28;20662;-65
2021/03/15 04:32:21;;;;;;;3.33;2.50;;;;;;;2.29;99.19;96270.31;5012738;28;20258;-65
2021/03/15 04:34:51;;;;;;;2.67;2.30;;;;;;;2.28;99.38;96273.91;5012691;28;20195;-64
2021/03/15 04:37:17;;;;;;;6.47;2.83;;;;;;;2.36;99.50;96266.00;5013350;28;20235;-65
2021/03/15 04:39:44;;;;;;;3.43;2.30;;;;;;;2.22;99.81;96255.75;5013016;28;20203;-66
2021/03/15 04:42:10;;;;;;;6.47;2.47;;;;;;;2.21;99.74;96254.94;5012231;28;20238;-66
2021/03/15 04:44:40;;;;;;;4.33;3.00;;;;;;;2.28;99.60;96255.00;5013098;28;20266;-65
2021/03/15 04:47:06;;;;;;;4.07;2.47;;;;;;;2.36;98.65;96239.34;5002927;28;20245;-65
2021/03/15 04:49:32;;;;;;;3.83;2.67;;;;;;;2.36;99.12;96240.13;5012993;28;20211;-66
2021/03/15 04:52:00;;;;;;;3.93;2.47;;;;;;;2.25;99.14;96242.44;5012591;28;20183;-65
2021/03/15 04:54:26;;;;;;;5.67;2.90;;;;;;;2.21;99.54;96236.84;5008054;28;20274;-65
2021/03/15 04:56:54;;;;;;;4.20;2.60;;;;;;;2.30;100.00;96237.50;5011121;28;20190;-65
2021/03/15 04:59:20;;;;;;;2.87;2.53;;;;;;;2.28;100.00;96229.16;5010340;28;20263;-65
2021/03/15 05:01:48;;;;;;;5.73;2.40;;;;;;;2.28;99.63;96229.16;5012685;28;20187;-64
2021/03/15 05:04:17;;;;;;;3.93;2.30;;;;;;;2.39;99.74;96228.63;5012419;28;20229;-65
2021/03/15 05:06:44;;;;;;;3.23;2.30;;;;;;;2.35;100.00;96222.22;5012169;28;20270;-65
2021/03/15 05:09:12;;;;;;;4.20;2.70;;;;;;;2.41;99.46;96218.88;5011878;28;20709;-66
2021/03/15 05:11:40;;;;;;;3.07;2.50;;;;;;;2.40;99.09;96223.25;5013762;28;20246;-66
2021/03/15 05:14:06;;;;;;;8.60;3.07;;;;;;;2.46;99.23;96226.84;5013607;28;20164;-65
2021/03/15 05:16:37;;;;;;;3.17;2.80;;;;;;;2.46;99.65;96216.50;5016364;28;20669;-66
2021/03/15 05:19:04;;;;;;;5.53;3.10;;;;;;;2.37;99.61;96212.50;5016804;28;20203;-65
2021/03/15 05:21:32;;;;;;;4.13;2.53;;;;;;;2.33;100.00;96219.84;5017163;28;20182;-65
2021/03/15 05:24:00;;;;;;;3.00;2.80;;;;;;;2.39;100.00;96213.13;5015917;28;20203;-65
2021/03/15 05:26:27;;;;;;;6.13;2.97;;;;;;;2.35;99.88;96211.88;5013991;28;20171;-66
2021/03/15 05:28:55;;;;;;;5.67;2.80;;;;;;;2.40;100.00;96212.91;5011885;28;20187;-67
2021/03/15 05:31:22;;;;;;;2.97;2.70;;;;;;;2.33;100.00;96212.09;4995421;28;20235;-65
2021/03/15 05:33:52;;;;;;;3.63;3.20;;;;;;;2.36;100.00;96203.13;5012279;28;20234;-64
2021/03/15 05:36:19;;;;;;;3.30;2.73;;;;;;;2.25;100.00;96209.63;5012252;28;20207;-65
2021/03/15 05:38:45;;;;;;;4.63;2.70;;;;;;;2.16;100.00;96200.44;5012512;28;20241;-65
2021/03/15 05:41:13;;;;;;;3.90;2.73;;;;;;;2.26;100.00;96195.72;5011808;28;20183;-65
2021/03/15 05:44:21;;;;;;;5.17;2.90;;;;;;;2.39;100.00;96187.25;5012115;28;20206;-65
2021/03/15 05:47:11;;;;;;;4.53;2.27;;;;;;;2.42;100.00;96182.50;4995888;28;20261;-66
2021/03/15 05:50:14;;;;;;;5.33;2.50;;;;;;;2.29;100.00;96171.25;5012125;28;20207;-64
2021/03/15 05:53:07;;;;;;;5.30;3.03;;;;;;;2.36;100.00;96172.91;5000821;28;20171;-65
2021/03/15 05:56:05;;;;;;;3.30;2.93;;;;;;;2.12;100.00;96173.34;5012226;28;20217;-65
2021/03/15 05:58:50;;;;;;;3.13;2.83;;;;;;;2.15;100.00;96162.63;5010178;28;20238;-65
2021/03/15 06:01:16;;;;;;;3.70;2.77;;;;;;;2.11;100.00;96158.84;5012395;28;20646;-66
2021/03/15 06:03:47;;;;;;;4.37;2.90;;;;;;;2.21;100.00;96161.09;5012780;28;20183;-66
2021/03/15 06:06:17;;;;;;;4.00;2.90;;;;;;;2.03;100.00;96158.97;4993618;28;20186;-65
2021/03/15 06:08:47;;;;;;;6.07;3.17;;;;;;;2.14;100.00;96153.28;5012158;28;20191;-66
2021/03/15 06:11:18;;;;;;;4.33;3.03;;;;;;;2.13;100.00;96146.50;5011659;28;20186;-65
2021/03/15 06:13:45;;;;;;;3.80;2.83;;;;;;;2.17;100.00;96140.00;5011732;28;20171;-65
2021/03/15 06:16:11;;;;;;;4.60;2.90;;;;;;;2.23;100.00;96143.59;5010828;28;20198;-65
2021/03/15 06:18:39;;;;;;;4.80;2.90;;;;;;;2.21;100.00;96136.03;5012104;28;20187;-65
2021/03/15 06:21:05;;;;;;;3.77;3.30;;;;;;;2.23;100.00;96131.44;5010963;28;20207;-65
2021/03/15 06:23:31;;;;;;;3.20;3.00;;;;;;;2.50;100.00;96132.41;5011895;28;20249;-65
2021/03/15 06:25:57;;;;;;;5.97;3.50;;;;;;;3.51;100.00;96130.69;4993624;28;20183;-66
2021/03/15 06:28:24;;;;;;;4.53;3.30;;;;;;;3.85;100.00;96122.69;5011916;28;20198;-66
2021/03/15 06:30:51;;;;;;;4.47;3.00;;;;;;;3.43;98.48;96118.72;4995716;28;20225;-68
2021/03/15 06:33:17;;;;;;;3.97;2.30;;;;;;;3.07;99.20;96126.00;5011786;28;20167;-66
2021/03/15 06:35:53;;;;;;;2.67;2.13;;;;;;;2.98;99.51;96119.44;5011549;28;20207;-66
2021/03/15 06:38:19;;;;;;;2.30;2.00;;;;;;;2.77;100.00;96115.19;5011612;28;20198;-67
2021/03/15 06:40:45;;;;;;;2.43;2.20;;;;;;;2.69;100.00;96107.59;5011500;28;20199;-66
2021/03/15 06:43:14;;;;;;;2.93;2.40;;;;;;;2.78;100.00;96106.44;5011346;28;21007;-70
2021/03/15 06:45:42;;;;;;;2.80;2.60;;;;;;;2.70;100.00;96102.25;5012141;28;20190;-66
2021/03/15 06:48:09;;;;;;;3.67;2.70;;;;;;;2.56;100.00;96103.19;4993372;28;20214;-64
2021/03/15 06:50:34;;;;;;;3.73;2.70;;;;;;;2.54;100.00;96096.59;5011106;28;20203;-65
2021/03/15 06:53:02;;;;;;;2.90;2.33;;;;;;;2.65;100.00;96109.78;5010485;28;20175;-64
2021/03/15 06:55:36;;;;;;;2.63;2.43;;;;;;;2.76;100.00;96098.88;5013505;28;20211;-65
2021/03/15 06:58:22;;;;;;;2.90;2.60;;;;;;;2.86;100.00;96096.72;5011368;28;20257;-64
2021/03/15 07:01:06;;;;;;;3.90;2.80;;;;;;;2.92;100.00;96088.16;5005617;28;20211;-68
2021/03/15 07:03:32;;;;;;;2.70;2.50;;;;;;;2.92;100.00;96089.97;5014561;28;20230;-65
2021/03/15 07:05:59;;;;;;;4.87;2.30;;;;;;;2.94;100.00;96085.41;5014390;28;20179;-65
2021/03/15 07:08:25;;;;;;;4.83;2.10;;;;;;;2.94;99.56;96087.97;5014288;28;20179;-65
2021/03/15 07:10:55;;;;;;;2.43;2.30;;;;;;;2.93;100.00;96089.78;5014313;28;20689;-66
2021/03/15 07:13:22;;;;;;;2.93;2.17;;;;;;;3.03;100.00;96089.38;5015174;28;20186;-65
2021/03/15 07:15:50;;;;;;;2.50;2.30;;;;;;;3.05;99.35;96084.00;5014587;28;20670;-66
2021/03/15 07:18:21;;;;;;;2.37;2.07;;;;;;;3.00;99.91;96086.41;5014360;28;20637;-66
2021/03/15 07:21:11;;;;;;;2.13;1.93;;;;;;;2.99;99.77;96082.22;5014824;28;20217;-66
2021/03/15 07:23:40;;;;;;;2.13;2.00;;;;;;;3.06;99.42;96085.63;5000574;28;20254;-66
2021/03/15 07:26:32;;;;;;;1.80;1.70;;;;;;;3.22;98.01;96096.41;5014907;28;20172;-67
2021/03/15 07:28:58;;;;;;;2.70;1.90;;;;;;;3.14;98.71;96099.16;5004227;28;20234;-66
2021/03/15 07:31:31;;;;;;;2.20;1.70;;;;;;;3.11;98.00;96098.75;5014153;28;20214;-67
2021/03/15 07:33:57;;;;;;;1.83;1.67;;;;;;;3.03;98.74;96098.94;5014428;28;20310;-66
2021/03/15 07:36:30;;;;;;;1.70;1.60;;;;;;;3.13;99.42;96097.56;4996613;28;20293;-66
2021/03/15 07:38:57;;;;;;;3.33;1.70;;;;;;;3.03;99.15;96097.16;5013191;28;20567;-67
2021/03/15 07:41:23;;;;;;;2.50;1.83;;;;;;;2.91;99.90;96111.66;4996619;28;20201;-65
2021/03/15 07:43:50;;;;;;;1.60;1.50;;;;;;;2.79;98.73;96103.66;5013658;28;20262;-67
2021/03/15 07:46:29;;;;;;;1.77;1.50;;;;;;;2.67;98.50;96112.19;5014332;28;20176;-66
2021/03/15 07:48:59;;;;;;;2.37;1.60;;;;;;;2.31;99.79;96099.50;4997985;28;20187;-65
2021/03/15 07:51:34;;;;;;;2.70;1.70;;;;;;;2.26;100.00;96091.50;5014178;28;20194;-65
2021/03/15 07:54:10;;;;;;;2.00;1.90;;;;;;;2.25;100.00;96097.66;5013127;28;20210;-65
2021/03/15 07:56:37;;;;;;;1.60;1.50;;;;;;;2.27;100.00;96091.31;5012577;28;20241;-65
2021/03/15 07:59:04;;;;;;;2.40;1.80;;;;;;;2.28;100.00;96090.34;5011103;28;20227;-66
2021/03/15 08:01:30;;;;;;;2.60;1.57;;;;;;;2.45;100.00;96083.81;5014243;28;20659;-65
2021/03/15 08:03:56;;;;;;;2.03;1.93;;;;;;;2.43;100.00;96087.63;5013142;28;20177;-65
2021/03/15 08:06:23;;;;;;;2.57;2.00;;;;;;;2.51;100.00;96095.19;4995392;28;20179;-65
2021/03/15 08:08:49;;;;;;;1.70;1.60;;;;;;;2.53;100.00;96095.81;5013581;28;20191;-65
2021/03/15 08:11:17;;;;;;;2.23;2.00;;;;;;;2.61;100.00;96095.66;5013444;28;20179;-65
2021/03/15 08:13:50;;;;;;;1.80;1.70;;;;;;;2.71;100.00;96097.88;5014259;28;20650;-65
2021/03/15 08:16:21;;;;;;;2.43;2.23;;;;;;;2.74;100.00;96100.03;5013026;28;20198;-65
2021/03/15 08:18:47;;;;;;;2.50;2.30;;;;;;;2.81;100.00;96103.47;5013159;28;20171;-66
2021/03/15 08:21:32;;;;;;;2.10;1.70;;;;;;;3.00;100.00;96102.72;5012386;28;20706;-65
2021/03/15 08:23:58;;;;;;;1.70;1.60;;;;;;;3.15;100.00;96093.00;5011833;28;20182;-65
2021/03/15 08:26:25;;;;;;;1.80;1.70;;;;;;;3.14;100.00;96104.34;5012473;28;20225;-64
2021/03/15 08:28:55;;;;;;;1.90;1.63;;;;;;;3.23;100.00;96100.56;5011984;28;20557;-64
2021/03/15 08:31:20;;;;;;;1.83;1.73;;;;;;;3.35;100.00;96096.38;5012414;28;20186;-65
2021/03/15 08:33:47;;;;;;;2.20;2.00;;;;;;;3.53;100.00;96097.59;5012714;28;20559;-64
2021/03/15 08:36:15;;;;;;;1.77;1.60;;;;;;;3.76;100.00;96098.78;5011163;28;20199;-65
2021/03/15 08:38:43;;;;;;;1.47;1.40;;;;;;;3.87;100.00;96105.16;5012778;28;20187;-65
2021/03/15 08:41:21;;;;;;;1.50;1.50;;;;;;;4.04;99.57;96102.94;5011956;28;20574;-65
2021/03/15 08:43:48;;;;;;;1.57;1.47;;;;;;;4.16;98.96;96098.72;5011770;28;20699;-65
2021/03/15 08:46:18;;;;;;;1.50;1.40;;;;;;;4.13;99.61;96105.09;5011247;28;20187;-65
2021/03/15 08:48:51;;;;;;;2.30;1.30;;;;;;;3.97;98.50;96109.91;5000359;28;20191;-65
2021/03/15 08:51:32;;;;;;;1.40;1.30;;;;;;;4.04;99.13;96105.53;5012001;28;20219;-65
2021/03/15 08:54:08;;;;;;;1.10;1.10;;;;;;;3.86;99.21;96108.75;5011566;28;20281;-65
2021/03/15 08:56:39;;;;;;;2.20;1.10;;;;;;;3.75;99.19;96123.09;5011251;28;20245;-65
2021/03/15 08:59:08;;;;;;;1.00;1.00;;;;;;;3.80;98.22;96117.31;5009542;28;20273;-65
2021/03/15 09:01:49;;;;;;;1.53;1.00;;;;;;;3.83;99.16;96113.53;5012475;28;20187;-65
2021/03/15 09:04:40;;;;;;;1.60;1.13;;;;;;;3.83;99.37;96116.13;5003177;28;20167;-65
2021/03/15 09:07:30;;;;;;;1.47;1.20;;;;;;;3.89;99.51;96123.91;5010959;28;20591;-65
2021/03/15 09:09:55;;;;;;;1.10;1.10;;;;;;;3.98;99.56;96119.31;5011193;28;20567;-67
2021/03/15 09:12:21;;;;;;;1.07;1.07;;;;;;;3.99;98.34;96118.31;4994464;28;20198;-64
2021/03/15 09:14:57;;;;;;;1.77;1.10;;;;;;;3.88;99.33;96124.09;5011966;28;20197;-65
2021/03/15 09:17:22;;;;;;;1.00;1.00;;;;;;;3.91;98.33;96123.69;5010704;28;20270;-66
2021/03/15 09:19:49;;;;;;;1.00;1.00;;;;;;;3.97;98.44;96121.09;5011522;28;20286;-66
2021/03/15 09:22:28;;;;;;;1.00;1.00;;;;;;;4.02;98.09;96126.47;5011567;28;20260;-64
2021/03/15 09:24:59;;;;;;;1.23;1.10;;;;;;;4.14;98.71;96127.44;5010235;28;20226;-67
2021/03/15 09:27:37;;;;;;;0.80;0.80;;;;;;;4.05;98.24;96127.88;5011767;28;20191;-65
2021/03/15 09:30:17;;;;;;;0.97;0.97;;;;;;;4.15;99.16;96125.66;5010800;28;20249;-66
2021/03/15 09:32:56;;;;;;;1.00;1.00;;;;;;;4.31;99.01;96132.22;5011938;28;20175;-66
2021/03/15 09:35:29;;;;;;;0.90;0.90;;;;;;;4.34;99.22;96126.63;5011611;28;20214;-65
2021/03/15 09:37:58;;;;;;;1.00;1.00;;;;;;;4.56;98.61;96140.94;5005621;28;20176;-64
2021/03/15 09:40:33;;;;;;;1.43;1.17;;;;;;;4.55;97.83;96128.97;5011209;28;20206;-65
2021/03/15 09:43:00;;;;;;;1.00;1.00;;;;;;;4.59;98.42;96136.13;5009286;28;20179;-65
2021/03/15 09:45:32;;;;;;;1.20;1.10;;;;;;;4.89;98.29;96133.00;5011478;28;20222;-65
2021/03/15 09:47:59;;;;;;;0.90;0.90;;;;;;;4.89;98.58;96138.22;5010651;28;20191;-70
2021/03/15 09:50:28;;;;;;;0.97;0.93;;;;;;;5.03;98.59;96139.72;5010735;28;20211;-66
2021/03/15 09:53:09;;;;;;;0.93;0.93;;;;;;;4.96;98.15;96144.94;5010730;28;20645;-64
2021/03/15 09:55:34;;;;;;;0.90;0.90;;;;;;;4.84;98.46;96146.63;5011060;28;20289;-66
2021/03/15 09:58:08;;;;;;;1.13;1.13;;;;;;;4.94;98.28;96149.56;5008085;28;20345;-66
2021/03/15 10:00:34;;;;;;;1.10;1.10;;;;;;;4.98;98.19;96142.94;5010724;28;20242;-65
2021/03/15 10:03:00;;;;;;;1.40;1.30;;;;;;;4.92;99.10;96142.97;5010260;28;20207;-66
2021/03/15 10:05:27;;;;;;;1.30;1.20;;;;;;;4.77;99.67;96143.25;5011355;28;20167;-66
2021/03/15 10:07:56;;;;;;;1.17;1.17;;;;;;;4.81;100.00;96138.44;5010920;28;20183;-67
2021/03/15 10:10:23;;;;;;;1.17;1.17;;;;;;;4.71;100.00;96144.06;5010981;28;20203;-66
2021/03/15 10:13:04;;;;;;;1.37;1.27;;;;;;;4.75;100.00;96147.84;5011034;28;20179;-66
2021/03/15 10:15:30;;;;;;;1.47;1.37;;;;;;;4.86;100.00;96149.78;5011289;28;20657;-65
2021/03/15 10:17:55;;;;;;;2.07;1.20;;;;;;;4.74;100.00;96154.03;4992933;28;20179;-64
2021/03/15 10:20:22;;;;;;;1.60;1.40;;;;;;;4.88;99.82;96147.78;5011007;28;20338;-65
2021/03/15 10:22:48;;;;;;;1.40;1.40;;;;;;;4.80;100.00;96147.22;5011161;28;20178;-65
2021/03/15 10:25:14;;;;;;;1.40;1.40;;;;;;;4.63;100.00;96154.66;5010441;28;20718;-65
2021/03/15 10:27:40;;;;;;;1.50;1.40;;;;;;;4.59;100.00;96151.69;5011071;28;20183;-65
2021/03/15 10:30:10;;;;;;;1.70;1.50;;;;;;;4.56;100.00;96161.69;5012218;28;20214;-66
2021/03/15 10:32:40;;;;;;;1.80;1.70;;;;;;;4.51;100.00;96162.28;5014745;28;20167;-67
2021/03/15 10:35:07;;;;;;;1.93;1.70;;;;;;;4.52;100.00;96153.50;5014485;28;20203;-66
2021/03/15 10:37:36;;;;;;;1.80;1.70;;;;;;;4.64;100.00;96166.66;5015020;28;20178;-66
2021/03/15 10:40:04;;;;;;;1.80;1.70;;;;;;;4.66;100.00;96169.03;5013791;28;20210;-66
2021/03/15 10:42:30;;;;;;;1.70;1.60;;;;;;;4.67;100.00;96168.03;5014865;28;20183;-66
2021/03/15 10:44:56;;;;;;;1.70;1.60;;;;;;;4.75;100.00;96167.81;5014174;28;20241;-64
2021/03/15 10:47:33;;;;;;;1.70;1.60;;;;;;;4.52;100.00;96171.66;5013662;28;20172;-65
2021/03/15 10:50:00;;;;;;;1.70;1.60;;;;;;;4.54;100.00;96177.47;5013197;28;20194;-65
2021/03/15 10:52:35;;;;;;;1.93;1.83;;;;;;;4.61;100.00;96164.47;5014588;28;20189;-65
2021/03/15 10:55:11;;;;;;;2.03;1.80;;;;;;;4.73;100.00;96170.63;5013691;28;20198;-66
2021/03/15 10:58:00;;;;;;;1.47;1.47;;;;;;;4.74;100.00;96177.38;5011390;28;20697;-66
2021/03/15 11:00:29;;;;;;;2.47;1.83;;;;;;;4.98;100.00;96178.50;5014253;28;20239;-64
2021/03/15 11:02:54;;;;;;;1.73;1.57;;;;;;;5.22;100.00;96185.59;5014328;28;20278;-65
2021/03/15 11:05:20;;;;;;;1.50;1.50;;;;;;;5.40;99.34;96179.72;4996151;28;20697;-66
2021/03/15 11:07:46;;;;;;;1.60;1.50;;;;;;;5.70;97.98;96179.91;5014356;28;20199;-66
2021/03/15 11:10:34;;;;;;;1.90;1.80;;;;;;;5.77;98.39;96176.25;5013389;28;20202;-65
2021/03/15 11:13:13;;;;;;;1.50;1.40;;;;;;;5.96;99.00;96181.56;5013257;28;20175;-66
2021/03/15 11:15:39;;;;;;;1.83;1.37;;;;;;;5.76;97.47;96190.25;4996682;28;20278;-66
2021/03/15 11:18:06;;;;;;;1.20;1.20;;;;;;;5.81;98.06;96190.44;5013081;28;20178;-66
2021/03/15 11:20:48;;;;;;;1.27;1.20;;;;;;;5.68;97.13;96189.75;5013736;28;20213;-66
2021/03/15 11:23:45;;;;;;;1.47;1.37;;;;;;;5.62;96.91;96188.78;5013130;28;21038;-66
2021/03/15 11:26:15;;;;;;;1.30;1.30;;;;;;;5.74;97.20;96197.47;5004621;28;20184;-65
2021/03/15 11:28:51;;;;;;;1.53;1.43;;;;;;;5.93;96.52;96203.56;5013532;28;20186;-66
2021/03/15 11:31:22;;;;;;;1.40;1.30;;;;;;;5.93;95.73;96197.56;5012687;28;20198;-66
2021/03/15 11:33:53;;;;;;;1.27;1.27;;;;;;;5.69;93.50;96202.50;5013166;28;20171;-66
2021/03/15 11:36:21;;;;;;;1.23;1.23;;;;;;;5.71;93.53;96212.69;5013263;28;20761;-65
2021/03/15 11:38:56;;;;;;;1.50;1.40;;;;;;;5.52;94.57;96205.84;5013176;28;20278;-66
2021/03/15 11:41:24;;;;;;;1.40;1.40;;;;;;;5.41;94.22;96200.28;5012946;28;20178;-65
2021/03/15 11:43:50;;;;;;;1.67;1.37;;;;;;;5.53;94.49;96208.19;5014003;28;20195;-66
2021/03/15 11:46:16;;;;;;;1.40;1.30;;;;;;;5.69;93.25;96215.50;5012886;28;20175;-66
2021/03/15 11:48:43;;;;;;;1.20;1.20;;;;;;;5.69;91.88;96189.50;5012961;28;20187;-65
2021/03/15 11:51:10;;;;;;;1.83;1.50;;;;;;;5.55;91.89;96205.41;5012751;28;20183;-66
2021/03/15 11:53:36;;;;;;;2.60;1.70;;;;;;;5.47;93.29;96200.44;5013904;28;20653;-65
2021/03/15 11:56:01;;;;;;;2.03;1.83;;;;;;;5.31;94.82;96220.72;5012542;28;20214;-65
2021/03/15 11:58:27;;;;;;;1.73;1.60;;;;;;;5.20;94.96;96203.19;5011468;28;20230;-65